createdAt,value
2022-11-08T00:01:36.804Z,63.0
2022-11-08T00:04:07.539Z,63.0
2022-11-08T00:06:38.151Z,63.0
2022-11-08T00:09:08.732Z,63.0
2022-11-08T00:11:39.328Z,63.0
2022-11-08T00:14:09.958Z,63.0
2022-11-08T00:16:50.583Z,63.0
2022-11-08T00:19:21.198Z,63.0
2022-11-08T00:21:51.794Z,63.0
2022-11-08T00:24:22.372Z,63.0
2022-11-08T00:26:52.969Z,63.0
2022-11-08T00:29:23.566Z,63.0
2022-11-08T00:32:04.159Z,63.0
2022-11-08T00:37:04.897Z,63.0
2022-11-08T00:39:45.528Z,63.0
2022-11-08T00:42:16.160Z,63.0
2022-11-08T00:44:56.758Z,63.0
2022-11-08T00:47:27.339Z,63.0
2022-11-08T00:49:57.925Z,63.0
2022-11-08T00:52:28.507Z,63.0
2022-11-08T00:54:59.111Z,63.0
2022-11-08T00:57:53.879Z,63.0
2022-11-08T01:00:09.116Z,63.0
2022-11-08T01:02:39.842Z,63.0
2022-11-08T01:05:10.523Z,63.0
2022-11-08T01:07:41.142Z,63.0
2022-11-08T01:10:11.777Z,63.0
2022-11-08T01:12:42.356Z,63.0
2022-11-08T01:17:53.083Z,63.0
2022-11-08T01:20:23.677Z,63.0
2022-11-08T01:22:54.243Z,63.0
2022-11-08T01:25:24.807Z,63.0
2022-11-08T01:27:55.414Z,63.0
2022-11-08T01:30:36.033Z,63.0
2022-11-08T01:33:06.649Z,63.0
2022-11-08T01:35:37.231Z,63.0
2022-11-08T01:38:07.792Z,63.0
2022-11-08T01:40:38.890Z,63.0
2022-11-08T01:43:19.491Z,63.0
2022-11-08T01:45:50.086Z,63.0
2022-11-08T01:48:20.708Z,64.0
2022-11-08T01:50:51.307Z,63.0
2022-11-08T01:53:22.207Z,64.0
2022-11-08T01:58:32.919Z,64.0
2022-11-08T02:01:03.636Z,63.0
2022-11-08T02:03:34.373Z,64.0
2022-11-08T02:06:04.978Z,64.0
2022-11-08T02:08:35.583Z,64.0
2022-11-08T02:11:06.179Z,64.0
2022-11-08T02:13:46.792Z,64.0
2022-11-08T02:16:17.400Z,63.0
2022-11-08T02:18:47.995Z,63.0
2022-11-08T02:21:18.579Z,63.0
2022-11-08T02:23:49.141Z,63.0
2022-11-08T02:26:19.762Z,64.0
2022-11-08T02:29:00.378Z,64.0
2022-11-08T02:31:30.959Z,64.0
2022-11-08T02:34:01.590Z,64.0
2022-11-08T02:39:02.348Z,64.0
2022-11-08T02:41:32.967Z,64.0
2022-11-08T02:44:13.563Z,64.0
2022-11-08T02:46:54.155Z,64.0
2022-11-08T02:49:24.729Z,64.0
2022-11-08T02:51:55.340Z,63.0
2022-11-08T02:54:26.164Z,63.0
2022-11-08T02:57:06.798Z,63.0
2022-11-08T02:59:37.377Z,63.0
2022-11-08T03:02:08.202Z,63.0
2022-11-08T03:04:39.070Z,63.0
2022-11-08T03:07:09.680Z,63.0
2022-11-08T03:09:35.285Z,63.0
2022-11-08T03:12:15.900Z,63.0
2022-11-08T03:19:46.779Z,63.0
2022-11-08T03:22:17.348Z,64.0
2022-11-08T03:24:47.963Z,64.0
2022-11-08T03:27:28.549Z,64.0
2022-11-08T03:29:59.150Z,64.0
2022-11-08T03:32:29.745Z,64.0
2022-11-08T03:35:00.340Z,64.0
2022-11-08T03:37:30.907Z,64.0
2022-11-08T03:40:01.492Z,64.0
2022-11-08T03:42:42.105Z,64.0
2022-11-08T03:45:12.710Z,64.0
2022-11-08T03:47:43.287Z,64.0
2022-11-08T03:50:13.889Z,64.0
2022-11-08T03:52:44.462Z,64.0
2022-11-08T03:55:35.178Z,64.0
2022-11-08T04:00:35.905Z,64.0
2022-11-08T04:03:06.510Z,64.0
2022-11-08T04:05:37.126Z,64.0
2022-11-08T04:10:47.907Z,64.0
2022-11-08T04:13:18.489Z,64.0
2022-11-08T04:15:49.171Z,64.0
2022-11-08T04:18:20.118Z,64.0
2022-11-08T04:20:51.121Z,64.0
2022-11-08T04:23:21.697Z,64.0
2022-11-08T04:26:02.320Z,64.0
2022-11-08T04:28:32.925Z,64.0
2022-11-08T04:31:03.534Z,64.0
2022-11-08T04:33:34.132Z,64.0
2022-11-08T04:41:15.030Z,64.0
2022-11-08T04:43:45.658Z,64.0
2022-11-08T04:46:16.277Z,64.0
2022-11-08T04:48:46.861Z,65.0
2022-11-08T04:51:17.496Z,65.0
2022-11-08T04:53:58.098Z,64.0
2022-11-08T04:56:28.703Z,65.0
2022-11-08T04:58:59.278Z,65.0
2022-11-08T05:01:32.656Z,65.0
2022-11-08T05:04:03.464Z,65.0
2022-11-08T05:06:34.110Z,65.0
2022-11-08T05:09:14.712Z,65.0
2022-11-08T05:11:45.298Z,65.0
2022-11-08T05:14:15.865Z,65.0
2022-11-08T05:16:46.496Z,65.0
2022-11-08T05:21:47.227Z,65.0
2022-11-08T05:24:27.816Z,65.0
2022-11-08T05:26:58.402Z,65.0
2022-11-08T05:29:28.990Z,65.0
2022-11-08T05:32:02.713Z,65.0
2022-11-08T05:34:33.307Z,65.0
2022-11-08T05:37:03.895Z,65.0
2022-11-08T05:39:44.503Z,65.0
2022-11-08T05:42:15.133Z,65.0
2022-11-08T05:44:45.748Z,65.0
2022-11-08T05:47:16.535Z,65.0
2022-11-08T05:52:17.541Z,65.0
2022-11-08T05:54:58.164Z,65.0
2022-11-08T05:57:32.224Z,65.0
2022-11-08T06:02:33.321Z,65.0
2022-11-08T06:05:04.099Z,65.0
2022-11-08T06:07:44.705Z,65.0
2022-11-08T06:10:15.311Z,65.0
2022-11-08T06:12:45.995Z,65.0
2022-11-08T06:15:16.612Z,65.0
2022-11-08T06:17:47.168Z,65.0
2022-11-08T06:20:17.777Z,65.0
2022-11-08T06:22:59.772Z,65.0
2022-11-08T06:25:30.370Z,65.0
2022-11-08T06:27:55.500Z,65.0
2022-11-08T06:30:26.108Z,65.0
2022-11-08T06:32:56.733Z,65.0
2022-11-08T06:35:27.732Z,65.0
2022-11-08T06:38:12.118Z,65.0
2022-11-08T06:43:16.549Z,65.0
2022-11-08T06:45:39.695Z,65.0
2022-11-08T06:48:10.280Z,65.0
2022-11-08T06:50:50.895Z,65.0
2022-11-08T06:53:21.715Z,65.0
2022-11-08T06:55:52.429Z,65.0
2022-11-08T06:58:23.461Z,65.0
2022-11-08T07:00:54.054Z,65.0
2022-11-08T07:03:24.702Z,65.0
2022-11-08T07:06:05.369Z,65.0
2022-11-08T07:08:35.966Z,65.0
2022-11-08T07:11:06.662Z,65.0
2022-11-08T07:16:07.413Z,64.0
2022-11-08T07:18:38.252Z,64.0
2022-11-08T07:23:49.152Z,64.0
2022-11-08T07:26:19.801Z,64.0
2022-11-08T07:28:50.405Z,64.0
2022-11-08T07:31:21.000Z,64.0
2022-11-08T07:34:01.612Z,63.0
2022-11-08T07:36:32.215Z,63.0
2022-11-08T07:39:06.395Z,63.0
2022-11-08T07:41:37.214Z,63.0
2022-11-08T07:44:07.820Z,63.0
2022-11-08T07:46:38.813Z,63.0
2022-11-08T07:49:19.552Z,63.0
2022-11-08T07:51:50.132Z,63.0
2022-11-08T07:54:20.729Z,63.0
2022-11-08T07:56:51.323Z,63.0
2022-11-08T07:59:21.916Z,63.0
2022-11-08T08:04:32.689Z,63.0
2022-11-08T08:07:03.299Z,63.0
2022-11-08T08:09:33.904Z,63.0
2022-11-08T08:12:04.475Z,63.0
2022-11-08T08:14:35.061Z,63.0
2022-11-08T08:17:05.651Z,62.0
2022-11-08T08:19:46.285Z,62.0
2022-11-08T08:22:16.871Z,62.0
2022-11-08T08:24:47.482Z,62.0
2022-11-08T08:27:23.196Z,62.0
2022-11-08T08:29:53.792Z,62.0
2022-11-08T08:32:27.188Z,62.0
2022-11-08T08:34:59.886Z,62.0
2022-11-08T08:37:30.453Z,62.0
2022-11-08T08:40:01.626Z,61.0
2022-11-08T08:45:02.422Z,61.0
2022-11-08T08:47:45.646Z,61.0
2022-11-08T08:50:16.289Z,61.0
2022-11-08T08:52:47.054Z,60.0
2022-11-08T08:55:17.658Z,60.0
2022-11-08T08:57:48.262Z,60.0
2022-11-08T09:03:00.770Z,60.0
2022-11-08T09:05:31.355Z,60.0
2022-11-08T09:08:01.982Z,60.0
2022-11-08T09:10:32.589Z,59.0
2022-11-08T09:13:03.179Z,59.0
2022-11-08T09:15:33.783Z,59.0
2022-11-08T09:18:14.548Z,59.0
2022-11-08T09:20:45.264Z,59.0
2022-11-08T09:25:45.930Z,58.0
2022-11-08T09:28:16.517Z,58.0
2022-11-08T09:30:51.675Z,58.0
2022-11-08T09:33:32.355Z,58.0
2022-11-08T09:36:02.967Z,58.0
2022-11-08T09:38:33.551Z,58.0
2022-11-08T09:41:04.159Z,58.0
2022-11-08T09:43:34.737Z,57.0
2022-11-08T09:46:05.347Z,57.0
2022-11-08T09:48:45.977Z,57.0
2022-11-08T09:51:16.579Z,57.0
2022-11-08T09:53:47.185Z,57.0
2022-11-08T09:56:17.790Z,57.0
2022-11-08T09:58:48.352Z,57.0
2022-11-08T10:01:32.372Z,57.0
2022-11-08T10:06:33.259Z,57.0
2022-11-08T10:09:03.890Z,57.0
2022-11-08T10:11:34.516Z,57.0
2022-11-08T10:14:05.098Z,57.0
2022-11-08T10:16:45.706Z,57.0
2022-11-08T10:19:16.313Z,57.0
2022-11-08T10:21:46.958Z,57.0
2022-11-08T10:24:17.545Z,57.0
2022-11-08T10:26:48.146Z,57.0
2022-11-08T10:29:18.727Z,57.0
2022-11-08T10:31:59.359Z,57.0
2022-11-08T10:34:29.967Z,57.0
2022-11-08T10:37:00.553Z,57.0
2022-11-08T10:39:31.133Z,57.0
2022-11-08T10:42:01.737Z,57.0
2022-11-08T10:47:12.519Z,57.0
2022-11-08T10:49:43.101Z,57.0
2022-11-08T10:52:13.783Z,57.0
2022-11-08T10:54:44.427Z,57.0
2022-11-08T10:57:15.035Z,57.0
2022-11-08T10:59:45.625Z,57.0
2022-11-08T11:02:26.413Z,57.0
2022-11-08T11:04:57.044Z,57.0
2022-11-08T11:07:27.764Z,57.0
2022-11-08T11:09:58.356Z,57.0
2022-11-08T11:12:28.990Z,57.0
2022-11-08T11:15:09.573Z,57.0
2022-11-08T11:17:43.125Z,57.0
2022-11-08T11:20:13.738Z,57.0
2022-11-08T11:22:44.362Z,57.0
2022-11-08T11:27:45.089Z,57.0
2022-11-08T11:30:25.693Z,57.0
2022-11-08T11:32:56.393Z,57.0
2022-11-08T11:35:27.078Z,57.0
2022-11-08T11:37:57.694Z,57.0
2022-11-08T11:40:28.389Z,57.0
2022-11-08T11:42:59.023Z,57.0
2022-11-08T11:45:39.609Z,57.0
2022-11-08T11:48:10.260Z,57.0
2022-11-08T11:50:41.241Z,57.0
2022-11-08T11:53:11.967Z,57.0
2022-11-08T11:55:42.570Z,57.0
2022-11-08T11:58:13.484Z,57.0
2022-11-08T12:00:54.074Z,57.0
2022-11-08T12:03:25.097Z,56.0
2022-11-08T12:08:26.168Z,56.0
2022-11-08T12:10:56.766Z,57.0
2022-11-08T12:13:27.368Z,56.0
2022-11-08T12:16:07.990Z,57.0
2022-11-08T12:18:52.940Z,57.0
2022-11-08T12:21:13.545Z,57.0
2022-11-08T12:23:44.145Z,57.0
2022-11-08T12:26:14.743Z,57.0
2022-11-08T12:28:49.977Z,57.0
2022-11-08T12:31:30.627Z,57.0
2022-11-08T12:34:07.765Z,57.0
2022-11-08T12:36:28.348Z,57.0
2022-11-08T12:38:58.927Z,57.0
2022-11-08T12:41:29.524Z,57.0
2022-11-08T12:44:00.141Z,57.0
2022-11-08T12:49:10.895Z,58.0
2022-11-08T12:51:41.479Z,58.0
2022-11-08T12:54:12.090Z,58.0
2022-11-08T12:56:44.693Z,58.0
2022-11-08T12:59:25.300Z,58.0
2022-11-08T13:01:55.903Z,58.0
2022-11-08T13:04:26.509Z,58.0
2022-11-08T13:06:57.286Z,58.0
2022-11-08T13:09:28.092Z,59.0
2022-11-08T13:11:58.684Z,59.0
2022-11-08T13:14:41.375Z,59.0
2022-11-08T13:17:12.124Z,59.0
2022-11-08T13:19:42.722Z,59.0
2022-11-08T13:22:13.435Z,59.0
2022-11-08T13:24:54.564Z,59.0
2022-11-08T13:29:55.332Z,59.0
2022-11-08T13:32:25.940Z,59.0
2022-11-08T13:34:56.662Z,59.0
2022-11-08T13:37:27.246Z,59.0
2022-11-08T13:39:57.836Z,59.0
2022-11-08T13:42:28.442Z,59.0
2022-11-08T13:45:09.057Z,60.0
2022-11-08T13:47:39.665Z,59.0
2022-11-08T13:50:10.254Z,59.0
2022-11-08T13:52:40.844Z,59.0
2022-11-08T13:55:11.555Z,59.0
2022-11-08T13:57:52.166Z,59.0
2022-11-08T14:00:22.759Z,59.0
2022-11-08T14:02:53.344Z,59.0
2022-11-08T14:05:23.941Z,59.0
2022-11-08T14:10:24.686Z,59.0
2022-11-08T14:13:05.288Z,59.0
2022-11-08T14:15:36.278Z,60.0
2022-11-08T14:18:06.897Z,60.0
2022-11-08T14:20:37.499Z,60.0
2022-11-08T14:23:08.108Z,60.0
2022-11-08T14:25:39.428Z,60.0
2022-11-08T14:28:20.022Z,60.0
2022-11-08T14:30:51.006Z,60.0
2022-11-08T14:33:21.877Z,60.0
2022-11-08T14:35:52.606Z,60.0
2022-11-08T14:38:23.203Z,60.0
2022-11-08T14:40:53.764Z,60.0
2022-11-08T14:43:34.378Z,60.0
2022-11-08T14:46:04.987Z,60.0
2022-11-08T14:51:05.717Z,60.0
2022-11-08T14:53:36.312Z,60.0
2022-11-08T14:56:16.967Z,60.0
2022-11-08T14:58:47.569Z,60.0
2022-11-08T15:01:18.190Z,60.0
2022-11-08T15:03:48.823Z,60.0
2022-11-08T15:06:23.998Z,60.0
2022-11-08T15:08:55.389Z,60.0
2022-11-08T15:11:35.968Z,60.0
2022-11-08T15:14:10.962Z,60.0
2022-11-08T15:16:41.590Z,60.0
2022-11-08T15:19:12.205Z,61.0
2022-11-08T15:21:42.801Z,61.0
2022-11-08T15:24:13.392Z,61.0
2022-11-08T15:26:53.990Z,61.0
2022-11-08T15:32:00.014Z,60.0
2022-11-08T15:34:21.758Z,60.0
2022-11-08T15:36:52.347Z,60.0
2022-11-08T15:39:22.917Z,60.0
2022-11-08T15:42:03.520Z,60.0
2022-11-08T15:44:34.136Z,60.0
2022-11-08T15:47:04.754Z,60.0
2022-11-08T15:49:35.344Z,60.0
2022-11-08T15:52:05.914Z,60.0
2022-11-08T15:54:51.815Z,60.0
2022-11-08T15:57:22.411Z,60.0
2022-11-08T15:59:52.999Z,60.0
2022-11-08T16:02:23.562Z,60.0
2022-11-08T16:04:54.141Z,60.0
2022-11-08T16:07:24.907Z,60.0
2022-11-08T16:12:35.655Z,60.0
2022-11-08T16:15:06.244Z,60.0
2022-11-08T16:17:36.844Z,60.0
2022-11-08T16:20:07.452Z,60.0
2022-11-08T16:22:38.069Z,60.0
2022-11-08T16:25:18.674Z,60.0
2022-11-08T16:27:49.268Z,60.0
2022-11-08T16:30:19.881Z,60.0
2022-11-08T16:32:50.471Z,60.0
2022-11-08T16:35:21.097Z,60.0
2022-11-08T16:40:31.846Z,60.0
2022-11-08T16:43:02.449Z,60.0
2022-11-08T16:46:04.762Z,60.0
2022-11-08T16:48:06.175Z,60.0
2022-11-08T16:53:17.439Z,60.0
2022-11-08T16:55:48.022Z,59.0
2022-11-08T16:58:18.857Z,59.0
2022-11-08T17:00:49.693Z,59.0
2022-11-08T17:03:20.429Z,59.0
2022-11-08T17:05:51.037Z,59.0
2022-11-08T17:08:32.091Z,59.0
2022-11-08T17:11:02.689Z,59.0
2022-11-08T17:13:37.601Z,59.0
2022-11-08T17:16:00.739Z,59.0
2022-11-08T17:18:31.720Z,59.0
2022-11-08T17:21:16.592Z,59.0
2022-11-08T17:23:45.955Z,59.0
2022-11-08T17:26:16.563Z,59.0
2022-11-08T17:28:47.151Z,59.0
2022-11-08T17:33:47.920Z,59.0
2022-11-08T17:36:18.516Z,59.0
2022-11-08T17:38:59.114Z,59.0
2022-11-08T17:41:29.704Z,59.0
2022-11-08T17:44:00.393Z,59.0
2022-11-08T17:46:31.045Z,59.0
2022-11-08T17:49:01.626Z,59.0
2022-11-08T17:51:32.210Z,59.0
2022-11-08T17:54:12.842Z,59.0
2022-11-08T17:56:43.458Z,59.0
2022-11-08T17:59:14.070Z,59.0
2022-11-08T18:01:44.929Z,59.0
2022-11-08T18:04:15.606Z,59.0
2022-11-08T18:06:56.406Z,59.0
2022-11-08T18:09:27.170Z,59.0
2022-11-08T18:14:28.531Z,59.0
2022-11-08T18:16:59.441Z,58.0
2022-11-08T18:19:30.030Z,58.0
2022-11-08T18:22:10.651Z,58.0
2022-11-08T18:24:43.645Z,58.0
2022-11-08T18:27:16.778Z,58.0
2022-11-08T18:29:47.362Z,58.0
2022-11-08T18:32:17.987Z,58.0
2022-11-08T18:34:48.600Z,59.0
2022-11-08T18:37:29.238Z,58.0
2022-11-08T18:39:59.838Z,58.0
2022-11-08T18:42:30.437Z,58.0
2022-11-08T18:45:01.054Z,58.0
2022-11-08T18:47:31.661Z,58.0
2022-11-08T18:50:02.254Z,58.0
2022-11-08T18:55:12.986Z,58.0
2022-11-08T18:57:43.590Z,58.0
2022-11-08T19:00:14.242Z,58.0
2022-11-08T19:02:44.847Z,58.0
2022-11-08T19:05:25.432Z,58.0
2022-11-08T19:07:56.059Z,58.0
2022-11-08T19:10:26.676Z,58.0
2022-11-08T19:12:57.264Z,58.0
2022-11-08T19:15:27.837Z,58.0
2022-11-08T19:18:02.832Z,58.0
2022-11-08T19:20:43.456Z,58.0
2022-11-08T19:23:14.323Z,58.0
2022-11-08T19:25:44.928Z,58.0
2022-11-08T19:28:16.258Z,58.0
2022-11-08T19:30:42.940Z,58.0
2022-11-08T19:35:53.682Z,58.0
2022-11-08T19:38:24.284Z,58.0
2022-11-08T19:40:54.893Z,58.0
2022-11-08T19:43:25.937Z,58.0
2022-11-08T19:46:00.932Z,58.0
2022-11-08T19:48:31.966Z,58.0
2022-11-08T19:51:12.549Z,58.0
2022-11-08T19:53:43.121Z,58.0
2022-11-08T19:56:13.717Z,58.0
2022-11-08T19:58:44.132Z,58.0
2022-11-08T20:01:14.776Z,58.0
2022-11-08T20:03:45.557Z,58.0
2022-11-08T20:06:26.183Z,58.0
2022-11-08T20:08:56.855Z,58.0
2022-11-08T20:11:27.481Z,58.0
2022-11-08T20:16:28.223Z,58.0
2022-11-08T20:19:08.802Z,58.0
2022-11-08T20:21:39.419Z,58.0
2022-11-08T20:24:10.042Z,58.0
2022-11-08T20:26:40.694Z,58.0
2022-11-08T20:29:11.282Z,58.0
2022-11-08T20:31:42.371Z,58.0
2022-11-08T20:34:23.485Z,58.0
2022-11-08T20:36:54.614Z,58.0
2022-11-08T20:39:25.188Z,58.0
2022-11-08T20:41:55.806Z,58.0
2022-11-08T20:44:26.418Z,58.0
2022-11-08T20:46:57.011Z,58.0
2022-11-08T20:49:37.601Z,58.0
2022-11-08T20:52:08.183Z,58.0
2022-11-08T20:57:08.925Z,59.0
2022-11-08T20:59:39.541Z,59.0
2022-11-08T21:02:10.381Z,59.0
2022-11-08T21:04:51.131Z,59.0
2022-11-08T21:08:15.263Z,59.0
2022-11-08T21:12:22.782Z,59.0
2022-11-08T21:14:53.504Z,59.0
2022-11-08T21:17:32.789Z,59.0
2022-11-08T21:20:03.403Z,59.0
2022-11-08T21:22:34.005Z,59.0
2022-11-08T21:25:04.619Z,59.0
2022-11-08T21:27:45.241Z,59.0
2022-11-08T21:30:15.813Z,59.0
2022-11-08T21:32:56.400Z,59.0
2022-11-08T21:37:57.170Z,59.0
2022-11-08T21:40:27.764Z,59.0
2022-11-08T21:42:59.207Z,59.0
2022-11-08T21:45:29.832Z,59.0
2022-11-08T21:48:15.080Z,59.0
2022-11-08T21:50:35.899Z,59.0
2022-11-08T21:53:06.485Z,59.0
2022-11-08T21:55:37.087Z,59.0
2022-11-08T21:58:07.667Z,59.0
2022-11-08T22:00:38.892Z,59.0
2022-11-08T22:03:19.539Z,59.0
2022-11-08T22:05:50.143Z,59.0
2022-11-08T22:08:21.060Z,59.0
2022-11-08T22:10:51.757Z,59.0
2022-11-08T22:13:22.323Z,59.0
2022-11-08T22:19:05.044Z,59.0
2022-11-08T22:21:06.182Z,59.0
2022-11-08T22:23:36.761Z,60.0
2022-11-08T22:26:07.367Z,60.0
2022-11-08T22:28:37.940Z,60.0
2022-11-08T22:31:08.536Z,60.0
2022-11-08T22:33:49.126Z,60.0
2022-11-08T22:36:19.748Z,60.0
2022-11-08T22:38:50.371Z,60.0
2022-11-08T22:41:20.972Z,60.0
2022-11-08T22:43:51.558Z,60.0
2022-11-08T22:46:32.633Z,60.0
2022-11-08T22:49:03.260Z,59.0
2022-11-08T22:51:33.870Z,59.0
2022-11-08T22:54:04.444Z,59.0
2022-11-08T22:59:05.177Z,60.0
2022-11-08T23:01:45.798Z,60.0
2022-11-08T23:04:16.408Z,60.0
2022-11-08T23:06:47.148Z,60.0
2022-11-08T23:09:17.839Z,60.0
2022-11-08T23:11:48.444Z,60.0
2022-11-08T23:14:19.415Z,60.0
2022-11-08T23:17:06.097Z,60.0
2022-11-08T23:19:36.690Z,60.0
2022-11-08T23:22:07.307Z,60.0
2022-11-08T23:24:37.903Z,60.0
2022-11-08T23:27:08.500Z,60.0
2022-11-08T23:29:39.186Z,60.0
2022-11-08T23:32:19.811Z,60.0
2022-11-08T23:34:50.436Z,60.0
2022-11-08T23:39:51.188Z,60.0
2022-11-08T23:42:21.779Z,60.0
2022-11-08T23:45:02.386Z,60.0
2022-11-08T23:47:32.978Z,60.0
2022-11-08T23:50:03.571Z,60.0
2022-11-08T23:52:34.133Z,60.0
2022-11-08T23:55:04.736Z,60.0
2022-11-08T23:57:35.351Z,60.0
